sensor_id;sensor_type;location;lat;lon;timestamp;pressure;altitude;pressure_sealevel;temperature;humidity
64521;BME280;50896;46.714;17.322;2022-09-21T00:03:41;100965.56;;;10.49;72.11
64521;BME280;50896;46.714;17.322;2022-09-21T00:06:12;100966.81;;;10.55;71.53
64521;BME280;50896;46.714;17.322;2022-09-21T00:08:39;100970.97;;;10.57;71.20
64521;BME280;50896;46.714;17.322;2022-09-21T00:11:06;100966.75;;;10.65;71.05
64521;BME280;50896;46.714;17.322;2022-09-21T00:13:34;100970.47;;;10.54;71.49
64521;BME280;50896;46.714;17.322;2022-09-21T00:16:07;100971.22;;;10.64;71.59
64521;BME280;50896;46.714;17.322;2022-09-21T00:18:35;100965.38;;;10.60;71.32
64521;BME280;50896;46.714;17.322;2022-09-21T00:21:10;100970.00;;;10.58;69.84
64521;BME280;50896;46.714;17.322;2022-09-21T00:23:37;100972.00;;;10.56;70.23
64521;BME280;50896;46.714;17.322;2022-09-21T00:28:31;100975.78;;;10.54;69.83
64521;BME280;50896;46.714;17.322;2022-09-21T00:31:03;100985.56;;;10.53;70.60
64521;BME280;50896;46.714;17.322;2022-09-21T00:33:31;100985.84;;;10.50;70.06
64521;BME280;50896;46.714;17.322;2022-09-21T00:36:05;100989.22;;;10.52;71.42
64521;BME280;50896;46.714;17.322;2022-09-21T00:38:34;100991.31;;;10.49;70.47
64521;BME280;50896;46.714;17.322;2022-09-21T00:41:01;100991.22;;;10.40;70.64
64521;BME280;50896;46.714;17.322;2022-09-21T00:43:28;100987.84;;;10.48;71.02
64521;BME280;50896;46.714;17.322;2022-09-21T00:46:02;100993.06;;;10.40;71.46
64521;BME280;50896;46.714;17.322;2022-09-21T00:48:31;100997.09;;;10.44;71.80
64521;BME280;50896;46.714;17.322;2022-09-21T00:51:02;100996.22;;;10.43;71.82
64521;BME280;50896;46.714;17.322;2022-09-21T00:53:31;100992.28;;;10.48;71.13
64521;BME280;50896;46.714;17.322;2022-09-21T00:55:58;100992.16;;;10.49;70.97
64521;BME280;50896;46.714;17.322;2022-09-21T00:58:29;100999.75;;;10.44;70.84
64521;BME280;50896;46.714;17.322;2022-09-21T01:00:59;100997.66;;;10.38;71.10
64521;BME280;50896;46.714;17.322;2022-09-21T01:03:29;100992.22;;;10.30;71.50
64521;BME280;50896;46.714;17.322;2022-09-21T01:05:56;100995.56;;;10.32;71.56
64521;BME280;50896;46.714;17.322;2022-09-21T01:08:24;100995.84;;;10.38;71.12
64521;BME280;50896;46.714;17.322;2022-09-21T01:11:06;100996.84;;;10.37;71.62
64521;BME280;50896;46.714;17.322;2022-09-21T01:13:59;100998.78;;;10.35;70.83
64521;BME280;50896;46.714;17.322;2022-09-21T01:19:55;100987.88;;;10.38;71.05
64521;BME280;50896;46.714;17.322;2022-09-21T01:22:56;100994.59;;;10.33;71.86
64521;BME280;50896;46.714;17.322;2022-09-21T01:31:16;100989.28;;;10.33;71.60
64521;BME280;50896;46.714;17.322;2022-09-21T01:33:50;100988.28;;;10.34;72.46
64521;BME280;50896;46.714;17.322;2022-09-21T01:36:22;100988.28;;;10.34;72.05
64521;BME280;50896;46.714;17.322;2022-09-21T01:38:56;100993.88;;;10.31;72.08
64521;BME280;50896;46.714;17.322;2022-09-21T01:41:26;100993.47;;;10.25;72.46
64521;BME280;50896;46.714;17.322;2022-09-21T01:43:59;100992.91;;;10.32;72.90
64521;BME280;50896;46.714;17.322;2022-09-21T01:46:35;100996.84;;;10.27;72.74
64521;BME280;50896;46.714;17.322;2022-09-21T01:49:11;100993.88;;;10.31;73.09
64521;BME280;50896;46.714;17.322;2022-09-21T01:51:43;100990.09;;;10.33;72.76
64521;BME280;50896;46.714;17.322;2022-09-21T01:54:17;100988.88;;;10.27;73.04
64521;BME280;50896;46.714;17.322;2022-09-21T01:56:57;100997.16;;;10.24;73.21
64521;BME280;50896;46.714;17.322;2022-09-21T01:59:36;100988.34;;;10.14;73.62
64521;BME280;50896;46.714;17.322;2022-09-21T02:02:13;100991.88;;;10.15;74.10
64521;BME280;50896;46.714;17.322;2022-09-21T02:04:41;100987.38;;;10.15;73.95
64521;BME280;50896;46.714;17.322;2022-09-21T02:07:08;100984.56;;;10.17;74.63
64521;BME280;50896;46.714;17.322;2022-09-21T02:09:36;100987.53;;;10.14;74.62
64521;BME280;50896;46.714;17.322;2022-09-21T02:12:04;100988.34;;;10.14;74.42
64521;BME280;50896;46.714;17.322;2022-09-21T02:14:31;100985.53;;;10.16;74.37
64521;BME280;50896;46.714;17.322;2022-09-21T02:19:56;100979.84;;;10.11;75.06
64521;BME280;50896;46.714;17.322;2022-09-21T02:22:40;100983.78;;;10.06;74.78
64521;BME280;50896;46.714;17.322;2022-09-21T02:25:15;100981.41;;;10.03;75.32
64521;BME280;50896;46.714;17.322;2022-09-21T02:27:52;100986.03;;;10.01;75.37
64521;BME280;50896;46.714;17.322;2022-09-21T02:30:24;100989.66;;;10.00;75.24
64521;BME280;50896;46.714;17.322;2022-09-21T02:33:10;100998.03;;;10.05;75.27
64521;BME280;50896;46.714;17.322;2022-09-21T02:35:54;100990.50;;;10.01;75.45
64521;BME280;50896;46.714;17.322;2022-09-21T02:38:52;100995.56;;;9.94;75.16
64521;BME280;50896;46.714;17.322;2022-09-21T02:44:57;100991.38;;;9.91;75.82
64521;BME280;50896;46.714;17.322;2022-09-21T02:47:37;100997.38;;;9.94;76.79
64521;BME280;50896;46.714;17.322;2022-09-21T02:50:11;100994.03;;;9.91;77.45
64521;BME280;50896;46.714;17.322;2022-09-21T02:52:41;100987.91;;;9.81;75.22
64521;BME280;50896;46.714;17.322;2022-09-21T02:55:11;100997.66;;;9.90;76.17
64521;BME280;50896;46.714;17.322;2022-09-21T02:57:39;100993.59;;;9.86;76.55
64521;BME280;50896;46.714;17.322;2022-09-21T03:00:07;100981.47;;;9.84;77.08
64521;BME280;50896;46.714;17.322;2022-09-21T03:02:39;100988.44;;;9.85;77.13
64521;BME280;50896;46.714;17.322;2022-09-21T03:05:07;100979.38;;;9.78;77.61
64521;BME280;50896;46.714;17.322;2022-09-21T03:07:34;100993.06;;;9.83;76.49
64521;BME280;50896;46.714;17.322;2022-09-21T03:10:02;100989.03;;;9.79;76.75
64521;BME280;50896;46.714;17.322;2022-09-21T03:12:29;100985.81;;;9.75;76.84
64521;BME280;50896;46.714;17.322;2022-09-21T03:14:58;100992.94;;;9.74;76.52
64521;BME280;50896;46.714;17.322;2022-09-21T03:17:25;100991.13;;;9.75;76.85
64521;BME280;50896;46.714;17.322;2022-09-21T03:19:53;101009.16;;;9.71;77.09
64521;BME280;50896;46.714;17.322;2022-09-21T03:22:22;101007.91;;;9.66;77.07
64521;BME280;50896;46.714;17.322;2022-09-21T03:24:49;101004.25;;;9.77;77.80
64521;BME280;50896;46.714;17.322;2022-09-21T03:27:18;101010.97;;;9.71;77.94
64521;BME280;50896;46.714;17.322;2022-09-21T03:29:46;101017.00;;;9.73;77.74
64521;BME280;50896;46.714;17.322;2022-09-21T03:32:13;101019.06;;;9.69;77.75
64521;BME280;50896;46.714;17.322;2022-09-21T03:34:40;101024.00;;;9.64;77.11
64521;BME280;50896;46.714;17.322;2022-09-21T03:37:08;101021.03;;;9.67;77.05
64521;BME280;50896;46.714;17.322;2022-09-21T03:39:35;101017.69;;;9.65;77.82
64521;BME280;50896;46.714;17.322;2022-09-21T03:42:02;101021.19;;;9.56;77.60
64521;BME280;50896;46.714;17.322;2022-09-21T03:44:29;101031.97;;;9.54;78.93
64521;BME280;50896;46.714;17.322;2022-09-21T03:46:56;101024.25;;;9.51;78.24
64521;BME280;50896;46.714;17.322;2022-09-21T03:49:23;101035.88;;;9.50;77.59
64521;BME280;50896;46.714;17.322;2022-09-21T03:51:50;101033.75;;;9.54;78.60
64521;BME280;50896;46.714;17.322;2022-09-21T03:54:17;101033.91;;;9.52;78.61
64521;BME280;50896;46.714;17.322;2022-09-21T03:56:44;101043.13;;;9.58;78.83
64521;BME280;50896;46.714;17.322;2022-09-21T03:59:10;101038.38;;;9.52;79.72
64521;BME280;50896;46.714;17.322;2022-09-21T04:01:40;101035.88;;;9.60;77.64
64521;BME280;50896;46.714;17.322;2022-09-21T04:04:07;101035.44;;;9.55;78.23
64521;BME280;50896;46.714;17.322;2022-09-21T04:06:34;101036.56;;;9.52;78.86
64521;BME280;50896;46.714;17.322;2022-09-21T04:09:01;101035.28;;;9.56;78.50
64521;BME280;50896;46.714;17.322;2022-09-21T04:11:28;101032.78;;;9.65;78.11
64521;BME280;50896;46.714;17.322;2022-09-21T04:13:55;101034.47;;;9.56;79.25
64521;BME280;50896;46.714;17.322;2022-09-21T04:16:26;101041.88;;;9.52;80.20
64521;BME280;50896;46.714;17.322;2022-09-21T04:18:53;101033.22;;;9.60;78.69
64521;BME280;50896;46.714;17.322;2022-09-21T04:21:20;101039.50;;;9.59;78.64
64521;BME280;50896;46.714;17.322;2022-09-21T04:23:48;101034.72;;;9.63;79.98
64521;BME280;50896;46.714;17.322;2022-09-21T04:26:25;101049.13;;;9.60;78.71
64521;BME280;50896;46.714;17.322;2022-09-21T04:28:53;101036.13;;;9.67;78.36
64521;BME280;50896;46.714;17.322;2022-09-21T04:31:22;101054.56;;;9.68;77.94
64521;BME280;50896;46.714;17.322;2022-09-21T04:33:50;101062.41;;;9.70;78.18
64521;BME280;50896;46.714;17.322;2022-09-21T04:36:18;101058.63;;;9.63;77.83
64521;BME280;50896;46.714;17.322;2022-09-21T04:38:45;101056.38;;;9.58;78.20
64521;BME280;50896;46.714;17.322;2022-09-21T04:41:12;101062.00;;;9.55;78.51
64521;BME280;50896;46.714;17.322;2022-09-21T04:43:44;101065.75;;;9.52;79.99
64521;BME280;50896;46.714;17.322;2022-09-21T04:46:13;101075.81;;;9.58;78.70
64521;BME280;50896;46.714;17.322;2022-09-21T04:48:40;101083.38;;;9.53;79.09
64521;BME280;50896;46.714;17.322;2022-09-21T04:51:08;101077.78;;;9.56;78.97
64521;BME280;50896;46.714;17.322;2022-09-21T04:53:37;101086.69;;;9.55;78.39
64521;BME280;50896;46.714;17.322;2022-09-21T04:56:06;101094.97;;;9.62;78.37
64521;BME280;50896;46.714;17.322;2022-09-21T04:58:33;101093.28;;;9.71;77.09
64521;BME280;50896;46.714;17.322;2022-09-21T05:01:00;101086.03;;;9.73;77.56
64521;BME280;50896;46.714;17.322;2022-09-21T05:03:27;101101.25;;;9.71;77.12
64521;BME280;50896;46.714;17.322;2022-09-21T05:05:55;101095.78;;;9.82;77.68
64521;BME280;50896;46.714;17.322;2022-09-21T05:08:24;101097.19;;;9.86;76.72
64521;BME280;50896;46.714;17.322;2022-09-21T05:11:12;101103.06;;;9.90;76.15
64521;BME280;50896;46.714;17.322;2022-09-21T05:13:39;101106.81;;;9.97;75.83
64521;BME280;50896;46.714;17.322;2022-09-21T05:16:07;101105.56;;;10.01;75.61
64521;BME280;50896;46.714;17.322;2022-09-21T05:18:34;101106.97;;;10.05;75.06
64521;BME280;50896;46.714;17.322;2022-09-21T05:21:03;101102.34;;;10.07;75.35
64521;BME280;50896;46.714;17.322;2022-09-21T05:23:30;101097.56;;;10.11;76.45
64521;BME280;50896;46.714;17.322;2022-09-21T05:25:57;101098.97;;;10.15;74.92
64521;BME280;50896;46.714;17.322;2022-09-21T05:28:25;101104.69;;;10.20;75.23
64521;BME280;50896;46.714;17.322;2022-09-21T05:34:04;101115.72;;;10.35;75.38
64521;BME280;50896;46.714;17.322;2022-09-21T05:39:01;101098.13;;;10.34;75.41
64521;BME280;50896;46.714;17.322;2022-09-21T05:41:28;101106.22;;;10.42;73.76
64521;BME280;50896;46.714;17.322;2022-09-21T05:43:55;101114.75;;;10.36;73.85
64521;BME280;50896;46.714;17.322;2022-09-21T05:46:31;101113.34;;;10.22;75.14
64521;BME280;50896;46.714;17.322;2022-09-21T05:49:21;101109.88;;;10.12;75.66
64521;BME280;50896;46.714;17.322;2022-09-21T05:55:06;101105.84;;;9.98;75.60
64521;BME280;50896;46.714;17.322;2022-09-21T05:57:45;101106.28;;;10.03;76.63
64521;BME280;50896;46.714;17.322;2022-09-21T06:00:19;101106.66;;;10.08;77.54
64521;BME280;50896;46.714;17.322;2022-09-21T06:05:39;101117.31;;;9.99;77.26
64521;BME280;50896;46.714;17.322;2022-09-21T06:08:07;101116.31;;;10.09;76.93
64521;BME280;50896;46.714;17.322;2022-09-21T06:10:34;101108.75;;;10.24;75.61
64521;BME280;50896;46.714;17.322;2022-09-21T06:13:01;101113.75;;;10.47;76.34
64521;BME280;50896;46.714;17.322;2022-09-21T06:15:28;101114.28;;;10.60;75.12
64521;BME280;50896;46.714;17.322;2022-09-21T06:17:57;101121.78;;;10.75;74.59
64521;BME280;50896;46.714;17.322;2022-09-21T06:20:24;101118.00;;;10.77;73.49
64521;BME280;50896;46.714;17.322;2022-09-21T06:22:51;101130.22;;;10.70;73.18
64521;BME280;50896;46.714;17.322;2022-09-21T06:25:17;101125.47;;;10.54;73.18
64521;BME280;50896;46.714;17.322;2022-09-21T06:27:45;101118.25;;;10.47;73.21
64521;BME280;50896;46.714;17.322;2022-09-21T06:30:12;101133.94;;;10.40;74.46
64521;BME280;50896;46.714;17.322;2022-09-21T06:32:39;101118.59;;;10.62;73.13
64521;BME280;50896;46.714;17.322;2022-09-21T06:35:06;101124.28;;;10.76;74.22
64521;BME280;50896;46.714;17.322;2022-09-21T06:37:33;101124.41;;;10.85;72.73
64521;BME280;50896;46.714;17.322;2022-09-21T06:40:00;101127.50;;;10.80;72.13
64521;BME280;50896;46.714;17.322;2022-09-21T06:42:26;101134.06;;;10.86;72.60
64521;BME280;50896;46.714;17.322;2022-09-21T06:44:53;101141.97;;;10.68;73.51
64521;BME280;50896;46.714;17.322;2022-09-21T06:47:21;101140.84;;;10.70;73.42
64521;BME280;50896;46.714;17.322;2022-09-21T06:49:47;101143.09;;;10.65;72.12
64521;BME280;50896;46.714;17.322;2022-09-21T06:52:14;101142.53;;;10.62;73.01
64521;BME280;50896;46.714;17.322;2022-09-21T06:54:41;101151.91;;;10.66;72.67
64521;BME280;50896;46.714;17.322;2022-09-21T06:57:07;101147.03;;;10.61;72.00
64521;BME280;50896;46.714;17.322;2022-09-21T06:59:34;101163.53;;;10.65;72.94
64521;BME280;50896;46.714;17.322;2022-09-21T07:02:01;101169.53;;;10.67;74.06
64521;BME280;50896;46.714;17.322;2022-09-21T07:04:28;101171.75;;;10.71;73.67
64521;BME280;50896;46.714;17.322;2022-09-21T07:06:55;101171.06;;;10.69;71.75
64521;BME280;50896;46.714;17.322;2022-09-21T07:09:23;101163.38;;;10.66;71.26
64521;BME280;50896;46.714;17.322;2022-09-21T07:12:10;101168.56;;;10.68;73.20
64521;BME280;50896;46.714;17.322;2022-09-21T07:14:36;101163.38;;;10.66;73.20
64521;BME280;50896;46.714;17.322;2022-09-21T07:17:03;101171.75;;;10.71;73.30
64521;BME280;50896;46.714;17.322;2022-09-21T07:19:31;101175.28;;;10.72;72.66
64521;BME280;50896;46.714;17.322;2022-09-21T07:21:58;101167.66;;;10.77;73.35
64521;BME280;50896;46.714;17.322;2022-09-21T07:24:25;101167.38;;;10.90;72.31
64521;BME280;50896;46.714;17.322;2022-09-21T07:26:51;101168.34;;;10.89;71.94
64521;BME280;50896;46.714;17.322;2022-09-21T07:29:18;101171.28;;;10.96;72.42
64521;BME280;50896;46.714;17.322;2022-09-21T07:31:45;101168.00;;;11.02;72.06
64521;BME280;50896;46.714;17.322;2022-09-21T07:34:13;101180.13;;;11.14;70.64
64521;BME280;50896;46.714;17.322;2022-09-21T07:36:40;101168.38;;;11.17;70.41
64521;BME280;50896;46.714;17.322;2022-09-21T07:39:08;101170.53;;;11.31;70.60
64521;BME280;50896;46.714;17.322;2022-09-21T07:41:35;101173.31;;;11.57;70.12
64521;BME280;50896;46.714;17.322;2022-09-21T07:44:02;101171.66;;;11.92;68.24
64521;BME280;50896;46.714;17.322;2022-09-21T07:46:29;101168.53;;;12.15;67.38
64521;BME280;50896;46.714;17.322;2022-09-21T07:48:56;101172.88;;;12.34;66.87
64521;BME280;50896;46.714;17.322;2022-09-21T07:51:23;101166.72;;;12.34;66.79
64521;BME280;50896;46.714;17.322;2022-09-21T07:53:54;101165.88;;;12.59;66.54
64521;BME280;50896;46.714;17.322;2022-09-21T07:56:24;101168.47;;;12.77;65.94
64521;BME280;50896;46.714;17.322;2022-09-21T07:58:51;101159.53;;;12.87;65.00
64521;BME280;50896;46.714;17.322;2022-09-21T08:01:38;101154.88;;;12.89;65.11
64521;BME280;50896;46.714;17.322;2022-09-21T08:04:09;101156.91;;;12.95;65.34
64521;BME280;50896;46.714;17.322;2022-09-21T08:06:37;101162.47;;;13.10;65.15
64521;BME280;50896;46.714;17.322;2022-09-21T08:09:06;101158.19;;;13.25;64.31
64521;BME280;50896;46.714;17.322;2022-09-21T08:11:34;101156.75;;;13.39;64.63
64521;BME280;50896;46.714;17.322;2022-09-21T08:14:03;101153.31;;;13.55;64.40
64521;BME280;50896;46.714;17.322;2022-09-21T08:16:30;101147.44;;;13.52;62.52
64521;BME280;50896;46.714;17.322;2022-09-21T08:18:57;101144.97;;;13.58;63.54
64521;BME280;50896;46.714;17.322;2022-09-21T08:21:24;101148.31;;;13.68;63.99
64521;BME280;50896;46.714;17.322;2022-09-21T08:23:50;101147.41;;;13.43;63.41
64521;BME280;50896;46.714;17.322;2022-09-21T08:26:18;101147.34;;;13.19;64.47
64521;BME280;50896;46.714;17.322;2022-09-21T08:28:47;101139.88;;;12.96;63.05
64521;BME280;50896;46.714;17.322;2022-09-21T08:31:17;101151.22;;;12.90;65.50
64521;BME280;50896;46.714;17.322;2022-09-21T08:33:47;101155.22;;;12.94;66.24
64521;BME280;50896;46.714;17.322;2022-09-21T08:36:15;101135.72;;;13.02;65.15
64521;BME280;50896;46.714;17.322;2022-09-21T08:38:42;101145.00;;;13.24;65.61
64521;BME280;50896;46.714;17.322;2022-09-21T08:43:49;101152.28;;;13.05;64.20
64521;BME280;50896;46.714;17.322;2022-09-21T08:46:24;101152.78;;;13.09;64.73
64521;BME280;50896;46.714;17.322;2022-09-21T08:51:36;101168.19;;;13.23;63.87
64521;BME280;50896;46.714;17.322;2022-09-21T08:54:26;101165.22;;;13.34;63.68
64521;BME280;50896;46.714;17.322;2022-09-21T08:56:55;101160.78;;;13.52;63.72
64521;BME280;50896;46.714;17.322;2022-09-21T08:59:40;101167.66;;;13.62;63.63
64521;BME280;50896;46.714;17.322;2022-09-21T09:05:02;101164.00;;;13.63;62.67
64521;BME280;50896;46.714;17.322;2022-09-21T09:16:28;101169.97;;;13.49;63.39
64521;BME280;50896;46.714;17.322;2022-09-21T09:21:44;101161.50;;;13.70;62.17
64521;BME280;50896;46.714;17.322;2022-09-21T09:24:31;101158.84;;;13.62;61.28
64521;BME280;50896;46.714;17.322;2022-09-21T09:27:08;101167.84;;;13.69;61.95
64521;BME280;50896;46.714;17.322;2022-09-21T09:29:58;101161.50;;;13.62;60.98
64521;BME280;50896;46.714;17.322;2022-09-21T09:35:45;101160.69;;;13.94;60.15
64521;BME280;50896;46.714;17.322;2022-09-21T09:38:35;101155.34;;;13.94;61.27
64521;BME280;50896;46.714;17.322;2022-09-21T09:52:12;101131.59;;;14.24;59.41
64521;BME280;50896;46.714;17.322;2022-09-21T09:54:40;101134.28;;;14.24;58.29
64521;BME280;50896;46.714;17.322;2022-09-21T09:57:08;101137.13;;;14.23;59.55
64521;BME280;50896;46.714;17.322;2022-09-21T09:59:40;101126.59;;;14.21;59.94
64521;BME280;50896;46.714;17.322;2022-09-21T10:02:25;101121.22;;;14.46;60.38
64521;BME280;50896;46.714;17.322;2022-09-21T10:05:02;101128.72;;;14.67;58.98
64521;BME280;50896;46.714;17.322;2022-09-21T10:07:42;101123.53;;;14.74;60.03
64521;BME280;50896;46.714;17.322;2022-09-21T10:12:47;101111.97;;;14.73;56.47
64521;BME280;50896;46.714;17.322;2022-09-21T10:15:16;101116.13;;;14.84;56.84
64521;BME280;50896;46.714;17.322;2022-09-21T10:17:44;101115.38;;;14.98;55.16
64521;BME280;50896;46.714;17.322;2022-09-21T10:20:16;101117.06;;;14.99;55.92
64521;BME280;50896;46.714;17.322;2022-09-21T10:22:46;101115.25;;;14.92;55.36
64521;BME280;50896;46.714;17.322;2022-09-21T10:25:18;101108.09;;;14.84;57.50
64521;BME280;50896;46.714;17.322;2022-09-21T10:27:48;101106.13;;;14.69;57.99
64521;BME280;50896;46.714;17.322;2022-09-21T10:33:01;101101.97;;;14.59;58.21
64521;BME280;50896;46.714;17.322;2022-09-21T10:35:28;101094.81;;;14.99;57.67
64521;BME280;50896;46.714;17.322;2022-09-21T10:38:24;101095.09;;;15.04;56.08
64521;BME280;50896;46.714;17.322;2022-09-21T10:40:53;101097.84;;;15.27;56.10
64521;BME280;50896;46.714;17.322;2022-09-21T10:43:24;101098.75;;;15.43;53.99
64521;BME280;50896;46.714;17.322;2022-09-21T10:45:55;101094.63;;;15.55;53.00
64521;BME280;50896;46.714;17.322;2022-09-21T10:48:25;101103.56;;;15.70;55.58
64521;BME280;50896;46.714;17.322;2022-09-21T10:50:54;101102.38;;;15.96;53.55
64521;BME280;50896;46.714;17.322;2022-09-21T10:53:34;101093.38;;;15.89;54.18
64521;BME280;50896;46.714;17.322;2022-09-21T10:56:06;101093.44;;;16.04;52.47
64521;BME280;50896;46.714;17.322;2022-09-21T10:59:12;101087.34;;;16.10;51.62
64521;BME280;50896;46.714;17.322;2022-09-21T11:01:48;101089.13;;;16.18;51.92
64521;BME280;50896;46.714;17.322;2022-09-21T11:04:18;101090.13;;;16.17;50.42
64521;BME280;50896;46.714;17.322;2022-09-21T11:06:52;101087.19;;;16.27;51.61
64521;BME280;50896;46.714;17.322;2022-09-21T11:09:36;101097.66;;;16.51;52.40
64521;BME280;50896;46.714;17.322;2022-09-21T11:12:33;101084.06;;;16.68;51.65
64521;BME280;50896;46.714;17.322;2022-09-21T11:15:11;101082.38;;;16.67;52.67
64521;BME280;50896;46.714;17.322;2022-09-21T11:26:41;101079.25;;;16.93;50.78
64521;BME280;50896;46.714;17.322;2022-09-21T11:28:56;101085.44;;;16.79;49.38
64521;BME280;50896;46.714;17.322;2022-09-21T11:34:47;101079.31;;;16.85;50.64
64521;BME280;50896;46.714;17.322;2022-09-21T11:40:05;101078.31;;;16.56;53.30
64521;BME280;50896;46.714;17.322;2022-09-21T11:43:12;101070.97;;;16.20;53.08
64521;BME280;50896;46.714;17.322;2022-09-21T11:48:43;101079.53;;;16.00;51.46
64521;BME280;50896;46.714;17.322;2022-09-21T11:54:17;101071.94;;;15.89;49.21
64521;BME280;50896;46.714;17.322;2022-09-21T12:05:02;101069.84;;;15.99;49.49
64521;BME280;50896;46.714;17.322;2022-09-21T12:10:42;101067.72;;;15.71;52.71
64521;BME280;50896;46.714;17.322;2022-09-21T12:13:16;101056.88;;;15.65;50.94
64521;BME280;50896;46.714;17.322;2022-09-21T12:18:45;101042.13;;;15.46;50.49
64521;BME280;50896;46.714;17.322;2022-09-21T12:21:22;101050.09;;;15.54;50.30
64521;BME280;50896;46.714;17.322;2022-09-21T12:23:51;101060.44;;;15.57;51.16
64521;BME280;50896;46.714;17.322;2022-09-21T12:26:25;101053.28;;;15.72;53.74
64521;BME280;50896;46.714;17.322;2022-09-21T12:29:06;101055.94;;;15.81;54.42
64521;BME280;50896;46.714;17.322;2022-09-21T12:31:44;101048.91;;;15.80;53.68
64521;BME280;50896;46.714;17.322;2022-09-21T12:34:17;101052.66;;;15.70;51.33
64521;BME280;50896;46.714;17.322;2022-09-21T12:39:46;101052.94;;;15.76;52.05
64521;BME280;50896;46.714;17.322;2022-09-21T12:42:32;101055.22;;;15.87;47.88
64521;BME280;50896;46.714;17.322;2022-09-21T12:45:06;101052.16;;;15.90;48.33
64521;BME280;50896;46.714;17.322;2022-09-21T12:47:53;101046.06;;;15.96;49.16
64521;BME280;50896;46.714;17.322;2022-09-21T12:53:18;101043.97;;;16.06;50.74
64521;BME280;50896;46.714;17.322;2022-09-21T12:58:46;101039.16;;;16.02;48.00
64521;BME280;50896;46.714;17.322;2022-09-21T13:09:26;101033.78;;;16.17;49.66
64521;BME280;50896;46.714;17.322;2022-09-21T13:11:59;101032.38;;;16.06;50.46
64521;BME280;50896;46.714;17.322;2022-09-21T13:14:33;101028.84;;;15.91;50.71
64521;BME280;50896;46.714;17.322;2022-09-21T13:17:03;101025.44;;;15.82;52.77
64521;BME280;50896;46.714;17.322;2022-09-21T13:19:32;101026.47;;;15.72;52.60
64521;BME280;50896;46.714;17.322;2022-09-21T13:22:12;101029.91;;;15.66;48.97
64521;BME280;50896;46.714;17.322;2022-09-21T13:25:27;101028.97;;;15.59;50.76
64521;BME280;50896;46.714;17.322;2022-09-21T13:30:43;101021.56;;;15.61;49.79
64521;BME280;50896;46.714;17.322;2022-09-21T13:38:22;101022.59;;;15.60;50.98
64521;BME280;50896;46.714;17.322;2022-09-21T13:41:03;101019.03;;;15.45;50.78
64521;BME280;50896;46.714;17.322;2022-09-21T13:49:22;101035.09;;;15.21;51.32
64521;BME280;50896;46.714;17.322;2022-09-21T13:54:25;101028.19;;;15.27;50.57
64521;BME280;50896;46.714;17.322;2022-09-21T14:02:43;101020.75;;;16.58;50.48
64521;BME280;50896;46.714;17.322;2022-09-21T14:08:11;101019.53;;;16.46;50.84
64521;BME280;50896;46.714;17.322;2022-09-21T14:11:00;101010.31;;;16.04;50.91
64521;BME280;50896;46.714;17.322;2022-09-21T14:13:35;101016.06;;;15.78;49.91
64521;BME280;50896;46.714;17.322;2022-09-21T14:18:55;101016.56;;;15.58;48.80
64521;BME280;50896;46.714;17.322;2022-09-21T14:21:22;101019.66;;;15.47;49.35
64521;BME280;50896;46.714;17.322;2022-09-21T14:31:57;101017.59;;;15.34;51.26
64521;BME280;50896;46.714;17.322;2022-09-21T14:34:30;101015.88;;;15.41;50.14
64521;BME280;50896;46.714;17.322;2022-09-21T14:37:03;101005.72;;;15.51;52.13
64521;BME280;50896;46.714;17.322;2022-09-21T14:39:38;101000.03;;;15.54;49.27
64521;BME280;50896;46.714;17.322;2022-09-21T14:42:17;100998.53;;;15.52;48.06
64521;BME280;50896;46.714;17.322;2022-09-21T14:44:46;101008.06;;;15.54;49.22
64521;BME280;50896;46.714;17.322;2022-09-21T14:47:34;101006.03;;;15.57;48.48
64521;BME280;50896;46.714;17.322;2022-09-21T14:53:11;101000.38;;;15.51;49.07
64521;BME280;50896;46.714;17.322;2022-09-21T14:58:46;101010.84;;;15.61;49.50
64521;BME280;50896;46.714;17.322;2022-09-21T15:01:24;101009.00;;;15.62;50.12
64521;BME280;50896;46.714;17.322;2022-09-21T15:15:43;100999.34;;;15.52;49.40
64521;BME280;50896;46.714;17.322;2022-09-21T15:18:20;101005.53;;;15.53;50.46
64521;BME280;50896;46.714;17.322;2022-09-21T15:20:59;101005.91;;;15.50;50.59
64521;BME280;50896;46.714;17.322;2022-09-21T15:23:37;101001.91;;;15.46;50.30
64521;BME280;50896;46.714;17.322;2022-09-21T15:26:11;100998.78;;;15.42;50.22
64521;BME280;50896;46.714;17.322;2022-09-21T15:28:44;101001.91;;;15.46;51.31
64521;BME280;50896;46.714;17.322;2022-09-21T15:31:35;101001.59;;;15.49;50.76
64521;BME280;50896;46.714;17.322;2022-09-21T15:34:05;100998.78;;;15.42;50.33
64521;BME280;50896;46.714;17.322;2022-09-21T15:36:35;100998.47;;;15.37;49.36
64521;BME280;50896;46.714;17.322;2022-09-21T15:39:03;100999.31;;;15.37;48.99
64521;BME280;50896;46.714;17.322;2022-09-21T15:46:39;101012.25;;;15.34;50.06
64521;BME280;50896;46.714;17.322;2022-09-21T15:49:17;101019.50;;;15.25;49.70
64521;BME280;50896;46.714;17.322;2022-09-21T15:51:53;101009.63;;;15.26;49.32
64521;BME280;50896;46.714;17.322;2022-09-21T15:56:59;101013.22;;;15.10;50.60
64521;BME280;50896;46.714;17.322;2022-09-21T15:59:33;101009.41;;;15.04;52.27
64521;BME280;50896;46.714;17.322;2022-09-21T16:02:10;101014.59;;;15.06;51.92
64521;BME280;50896;46.714;17.322;2022-09-21T16:04:44;101013.63;;;14.98;50.78
64521;BME280;50896;46.714;17.322;2022-09-21T16:09:52;101009.00;;;14.92;50.83
64521;BME280;50896;46.714;17.322;2022-09-21T16:12:40;101011.31;;;14.95;51.03
64521;BME280;50896;46.714;17.322;2022-09-21T16:15:32;101025.06;;;14.92;53.26